createdAt,value
2017-03-27T00:00:35.763Z,0
2017-03-27T00:01:16.331Z,0
2017-03-27T00:01:56.903Z,0
2017-03-27T00:02:37.463Z,0
2017-03-27T00:03:18.037Z,0
2017-03-27T00:03:58.606Z,0
2017-03-27T00:04:39.192Z,0
2017-03-27T00:05:19.756Z,0
2017-03-27T00:06:00.325Z,0
2017-03-27T00:06:40.924Z,0
2017-03-27T00:07:21.494Z,0
2017-03-27T00:08:02.066Z,0
2017-03-27T00:08:42.647Z,0
2017-03-27T00:10:55.423Z,0
2017-03-27T00:11:36.014Z,0
2017-03-27T00:12:16.614Z,0
2017-03-27T00:12:57.196Z,0
2017-03-27T00:13:37.775Z,0
2017-03-27T00:14:18.410Z,0
2017-03-27T00:14:58.984Z,0
2017-03-27T00:15:39.587Z,0
2017-03-27T00:16:20.148Z,0
2017-03-27T00:17:00.727Z,0
2017-03-27T00:17:41.300Z,0
2017-03-27T00:18:21.873Z,0
2017-03-27T00:19:02.434Z,0
2017-03-27T00:19:43.048Z,0
2017-03-27T00:20:23.647Z,0
2017-03-27T00:21:04.227Z,0
2017-03-27T00:21:44.802Z,0
2017-03-27T00:22:25.371Z,0
2017-03-27T00:23:05.940Z,0
2017-03-27T00:23:46.515Z,0
2017-03-27T00:24:27.125Z,0
2017-03-27T00:25:07.701Z,0
2017-03-27T00:25:48.271Z,0
2017-03-27T00:26:28.860Z,0
2017-03-27T00:27:09.436Z,0
2017-03-27T00:27:50.003Z,0
2017-03-27T00:28:30.578Z,0
2017-03-27T00:29:11.148Z,0
2017-03-27T00:29:51.721Z,0
2017-03-27T00:30:32.314Z,0
2017-03-27T00:31:12.882Z,0
2017-03-27T00:31:53.454Z,0
2017-03-27T00:32:34.039Z,0
2017-03-27T00:33:14.659Z,0
2017-03-27T00:33:55.248Z,0
2017-03-27T00:34:35.821Z,0
2017-03-27T00:35:16.392Z,0
2017-03-27T00:35:56.984Z,0
2017-03-27T00:36:37.550Z,0
2017-03-27T00:37:18.145Z,0
2017-03-27T00:37:58.705Z,0
2017-03-27T00:38:39.300Z,0
2017-03-27T00:39:19.859Z,0
2017-03-27T00:40:00.428Z,0
2017-03-27T00:40:41.039Z,0
2017-03-27T00:41:21.609Z,0
2017-03-27T00:42:02.203Z,0
2017-03-27T00:42:42.793Z,0
2017-03-27T00:43:23.341Z,0
2017-03-27T00:44:03.926Z,0
2017-03-27T00:44:44.484Z,0
2017-03-27T00:45:25.068Z,0
2017-03-27T00:46:05.730Z,0
2017-03-27T00:46:46.339Z,0
2017-03-27T00:47:26.901Z,0
2017-03-27T00:48:07.474Z,0
2017-03-27T00:48:48.046Z,0
2017-03-27T00:49:28.647Z,0
2017-03-27T00:50:09.215Z,0
2017-03-27T00:50:49.788Z,0
2017-03-27T00:51:30.371Z,0
2017-03-27T00:52:10.942Z,0
2017-03-27T00:52:51.516Z,0
2017-03-27T00:53:32.089Z,0
2017-03-27T00:54:12.678Z,0
2017-03-27T00:54:53.263Z,0
2017-03-27T00:55:33.847Z,0
2017-03-27T00:56:14.415Z,0
2017-03-27T00:56:54.995Z,0
2017-03-27T00:57:35.585Z,0
2017-03-27T00:58:16.155Z,0
2017-03-27T00:58:56.741Z,0
2017-03-27T00:59:37.371Z,0
2017-03-27T01:00:17.903Z,0
2017-03-27T01:00:58.509Z,0
2017-03-27T01:01:39.061Z,0
2017-03-27T01:02:19.643Z,0
2017-03-27T01:03:00.221Z,0
2017-03-27T01:03:40.828Z,0
2017-03-27T01:04:21.407Z,0
2017-03-27T01:05:01.979Z,0
2017-03-27T01:05:42.576Z,0
2017-03-27T01:06:23.150Z,0
2017-03-27T01:07:03.718Z,0
2017-03-27T01:07:44.317Z,0
2017-03-27T01:08:24.869Z,0
2017-03-27T01:09:05.445Z,0
2017-03-27T01:09:46.014Z,0
2017-03-27T01:10:26.608Z,0
2017-03-27T01:11:07.180Z,0
2017-03-27T01:11:47.743Z,0
2017-03-27T01:12:28.309Z,0
2017-03-27T01:13:08.876Z,0
2017-03-27T01:13:49.464Z,0
2017-03-27T01:14:30.068Z,0
2017-03-27T01:15:10.670Z,0
2017-03-27T01:15:51.237Z,0
2017-03-27T01:16:31.812Z,0
2017-03-27T01:17:12.370Z,0
2017-03-27T01:17:52.954Z,0
2017-03-27T01:18:33.557Z,0
2017-03-27T01:19:14.118Z,0
2017-03-27T01:19:54.693Z,0
2017-03-27T01:20:35.301Z,0
2017-03-27T01:21:15.950Z,0
2017-03-27T01:21:56.532Z,0
2017-03-27T01:22:37.099Z,0
2017-03-27T01:23:17.667Z,0
2017-03-27T01:23:58.244Z,0
2017-03-27T01:24:38.831Z,0
2017-03-27T01:25:19.449Z,0
2017-03-27T01:26:00.014Z,0
2017-03-27T01:26:40.594Z,0
2017-03-27T01:27:21.193Z,0
2017-03-27T01:28:01.780Z,0
2017-03-27T01:28:42.368Z,0
2017-03-27T01:29:22.955Z,0
2017-03-27T01:30:03.528Z,0
2017-03-27T01:30:44.106Z,0
2017-03-27T01:31:24.694Z,0
2017-03-27T01:32:05.263Z,0
2017-03-27T01:32:45.877Z,0
2017-03-27T01:33:26.453Z,0
2017-03-27T01:34:07.042Z,0
2017-03-27T01:34:47.609Z,0
2017-03-27T01:35:28.184Z,0
2017-03-27T01:36:08.779Z,0
2017-03-27T01:36:49.371Z,0
2017-03-27T01:37:29.976Z,0
2017-03-27T01:40:12.710Z,0
2017-03-27T01:40:53.282Z,0
2017-03-27T01:41:33.857Z,0
2017-03-27T01:42:14.478Z,0
2017-03-27T01:42:55.096Z,0
2017-03-27T01:43:35.662Z,0
2017-03-27T01:44:16.232Z,0
2017-03-27T01:44:56.803Z,0
2017-03-27T01:45:37.391Z,0
2017-03-27T01:46:18.006Z,0
2017-03-27T01:46:58.695Z,0
2017-03-27T01:47:39.284Z,0
2017-03-27T01:48:19.935Z,0
2017-03-27T01:49:00.530Z,0
2017-03-27T01:49:41.131Z,0
2017-03-27T01:50:21.701Z,0
2017-03-27T01:51:02.282Z,0
2017-03-27T01:51:42.860Z,0
2017-03-27T01:52:23.439Z,0
2017-03-27T01:53:04.039Z,0
2017-03-27T01:53:44.620Z,0
2017-03-27T01:54:25.194Z,0
2017-03-27T01:55:05.782Z,0
2017-03-27T01:55:46.369Z,0
2017-03-27T01:56:26.950Z,0
2017-03-27T01:57:07.612Z,0
2017-03-27T01:57:48.188Z,0
2017-03-27T01:58:28.772Z,0
2017-03-27T01:59:09.402Z,0
2017-03-27T01:59:50.000Z,0
2017-03-27T02:00:30.563Z,0
2017-03-27T02:01:11.134Z,0
2017-03-27T02:01:51.721Z,0
2017-03-27T02:02:32.281Z,0
2017-03-27T02:03:12.870Z,0
2017-03-27T02:03:53.453Z,0
2017-03-27T02:04:34.039Z,0
2017-03-27T02:05:14.602Z,0
2017-03-27T02:05:55.182Z,0
2017-03-27T02:06:35.745Z,0
2017-03-27T02:07:16.362Z,0
2017-03-27T02:07:56.940Z,0
2017-03-27T02:08:37.503Z,0
2017-03-27T02:09:18.120Z,0
2017-03-27T02:09:58.721Z,0
2017-03-27T02:10:39.306Z,0
2017-03-27T02:11:19.924Z,0
2017-03-27T02:12:00.458Z,0
2017-03-27T02:12:41.040Z,0
2017-03-27T02:13:21.600Z,0
2017-03-27T02:14:02.177Z,0
2017-03-27T02:14:42.771Z,0
2017-03-27T02:15:23.316Z,0
2017-03-27T02:16:03.892Z,0
2017-03-27T02:16:44.461Z,0
2017-03-27T02:17:25.043Z,0
2017-03-27T02:18:05.620Z,0
2017-03-27T02:18:46.195Z,0
2017-03-27T02:19:26.751Z,0
2017-03-27T02:20:07.361Z,0
2017-03-27T02:20:47.905Z,0
2017-03-27T02:21:28.483Z,0
2017-03-27T02:22:09.093Z,0
2017-03-27T02:22:49.681Z,0
2017-03-27T02:23:30.273Z,0
2017-03-27T02:24:10.864Z,0
2017-03-27T02:24:51.435Z,0
2017-03-27T02:25:32.026Z,0
2017-03-27T02:26:12.604Z,0
2017-03-27T02:26:53.189Z,0
2017-03-27T02:27:33.783Z,0
2017-03-27T02:28:14.389Z,0
2017-03-27T02:30:42.429Z,0
2017-03-27T02:31:23.007Z,0
2017-03-27T02:32:03.607Z,0
2017-03-27T02:32:44.180Z,0
2017-03-27T02:33:24.742Z,0
2017-03-27T02:34:05.336Z,0
2017-03-27T02:34:45.917Z,0
2017-03-27T02:35:26.502Z,0
2017-03-27T02:36:07.089Z,0
2017-03-27T02:36:47.656Z,0
2017-03-27T02:37:28.242Z,0
2017-03-27T02:38:08.806Z,0
2017-03-27T02:38:49.372Z,0
2017-03-27T02:39:29.964Z,0
2017-03-27T02:40:10.558Z,0
2017-03-27T02:40:51.111Z,0
2017-03-27T02:41:31.702Z,0
2017-03-27T02:42:12.289Z,0
2017-03-27T02:42:52.885Z,0
2017-03-27T02:43:33.484Z,0
2017-03-27T02:44:14.068Z,0
2017-03-27T02:44:54.646Z,0
2017-03-27T02:45:35.237Z,0
2017-03-27T02:46:15.799Z,0
2017-03-27T02:46:56.401Z,0
2017-03-27T02:47:37.001Z,0
2017-03-27T02:48:17.575Z,0
2017-03-27T02:48:58.151Z,0
2017-03-27T02:49:38.724Z,0
2017-03-27T02:50:19.313Z,0
2017-03-27T02:50:59.900Z,0
2017-03-27T02:51:40.499Z,0
2017-03-27T02:52:21.086Z,0
2017-03-27T02:53:01.648Z,0
2017-03-27T02:53:42.219Z,0
2017-03-27T02:54:22.824Z,0
2017-03-27T02:55:03.406Z,0
2017-03-27T02:55:44.030Z,0
2017-03-27T02:56:24.590Z,0
2017-03-27T02:57:05.160Z,0
2017-03-27T02:57:45.739Z,0
2017-03-27T02:58:26.300Z,0
2017-03-27T02:59:06.885Z,0
2017-03-27T02:59:47.493Z,0
2017-03-27T03:00:28.083Z,0
2017-03-27T03:01:08.684Z,0
2017-03-27T03:01:49.244Z,0
2017-03-27T03:02:29.818Z,0
2017-03-27T03:03:10.388Z,0
2017-03-27T03:03:50.976Z,0
2017-03-27T03:04:31.570Z,0
2017-03-27T03:05:12.160Z,0
2017-03-27T03:05:52.720Z,0
2017-03-27T03:06:33.304Z,0
2017-03-27T03:07:13.877Z,0
2017-03-27T03:07:54.437Z,0
2017-03-27T03:08:35.024Z,0
2017-03-27T03:09:15.624Z,0
2017-03-27T03:09:56.210Z,0
2017-03-27T03:10:36.782Z,0
2017-03-27T03:11:17.390Z,0
2017-03-27T03:11:57.980Z,0
2017-03-27T03:12:38.557Z,0
2017-03-27T03:13:19.143Z,0
2017-03-27T03:13:59.745Z,0
2017-03-27T03:14:40.323Z,0
2017-03-27T03:15:20.957Z,0
2017-03-27T03:16:01.516Z,0
2017-03-27T03:16:42.102Z,0
2017-03-27T03:17:22.690Z,0
2017-03-27T03:18:03.294Z,0
2017-03-27T03:18:43.864Z,0
2017-03-27T03:19:24.444Z,0
2017-03-27T03:20:05.036Z,0
2017-03-27T03:20:45.634Z,0
2017-03-27T03:21:26.199Z,0
2017-03-27T03:22:06.775Z,0
2017-03-27T03:22:47.349Z,0
2017-03-27T03:23:27.931Z,0
2017-03-27T03:24:08.513Z,0
2017-03-27T03:24:49.100Z,0
2017-03-27T03:25:29.707Z,0
2017-03-27T03:26:10.321Z,0
2017-03-27T03:26:50.921Z,0
2017-03-27T03:27:31.542Z,0
2017-03-27T03:28:12.130Z,0
2017-03-27T03:28:52.710Z,0
2017-03-27T03:29:33.290Z,0
2017-03-27T03:30:13.873Z,0
2017-03-27T03:30:54.452Z,0
2017-03-27T03:31:35.021Z,0
2017-03-27T03:32:15.612Z,0
2017-03-27T03:32:56.156Z,0
2017-03-27T03:33:36.725Z,0
2017-03-27T03:34:17.342Z,0
2017-03-27T03:34:57.938Z,0
2017-03-27T03:35:38.493Z,0
2017-03-27T03:36:19.072Z,0
2017-03-27T03:36:59.645Z,0
2017-03-27T03:37:40.228Z,0
2017-03-27T03:38:20.807Z,0
2017-03-27T03:39:01.379Z,0
2017-03-27T03:39:41.974Z,0
2017-03-27T03:40:22.601Z,0
2017-03-27T03:41:03.183Z,0
2017-03-27T03:41:43.745Z,0
2017-03-27T03:42:24.313Z,0
2017-03-27T03:43:04.902Z,0
2017-03-27T03:43:45.492Z,0
2017-03-27T03:44:26.086Z,0
2017-03-27T03:45:06.660Z,0
2017-03-27T03:45:47.226Z,0
2017-03-27T03:46:27.807Z,0
2017-03-27T03:47:08.383Z,0
2017-03-27T03:47:48.955Z,0
2017-03-27T03:48:29.541Z,0
2017-03-27T03:49:10.124Z,0
2017-03-27T03:49:50.714Z,0
2017-03-27T03:50:31.297Z,0
2017-03-27T03:51:11.868Z,0
2017-03-27T03:51:52.441Z,0
2017-03-27T03:52:33.062Z,0
2017-03-27T03:53:13.668Z,0
2017-03-27T03:53:54.258Z,0
2017-03-27T03:54:34.829Z,0
2017-03-27T03:55:15.401Z,0
2017-03-27T03:55:55.988Z,0
2017-03-27T03:56:36.559Z,0
2017-03-27T03:57:17.155Z,0
2017-03-27T03:57:57.734Z,0
2017-03-27T03:58:38.328Z,0
2017-03-27T03:59:18.911Z,0
2017-03-27T03:59:59.481Z,0
2017-03-27T04:00:40.047Z,0
2017-03-27T04:01:20.630Z,0
2017-03-27T04:02:01.242Z,0
2017-03-27T04:02:41.817Z,0
2017-03-27T04:03:22.386Z,0
2017-03-27T04:04:02.966Z,0
2017-03-27T04:04:43.560Z,0
2017-03-27T04:05:24.160Z,0
2017-03-27T04:06:04.740Z,0
2017-03-27T04:06:45.359Z,0
2017-03-27T04:07:25.944Z,0
2017-03-27T04:08:06.534Z,0
2017-03-27T04:08:47.108Z,0
2017-03-27T04:09:27.682Z,0
2017-03-27T04:10:08.277Z,0
2017-03-27T04:10:48.865Z,0
2017-03-27T04:11:29.513Z,0
2017-03-27T04:12:10.117Z,0
2017-03-27T04:12:50.719Z,0
2017-03-27T04:13:31.372Z,0
2017-03-27T04:14:12.038Z,0
2017-03-27T04:14:52.556Z,0
2017-03-27T04:15:33.150Z,0
2017-03-27T04:16:13.728Z,0
2017-03-27T04:16:54.292Z,0
2017-03-27T04:17:34.886Z,0
2017-03-27T04:18:15.465Z,0
2017-03-27T04:18:56.090Z,0
2017-03-27T04:19:36.668Z,0
2017-03-27T04:20:17.254Z,0
2017-03-27T04:20:57.838Z,0
2017-03-27T04:21:38.456Z,0
2017-03-27T04:22:19.026Z,0
2017-03-27T04:22:59.598Z,0
2017-03-27T04:23:40.173Z,0
2017-03-27T04:24:20.770Z,0
2017-03-27T04:25:01.353Z,0
2017-03-27T04:25:41.919Z,0
2017-03-27T04:26:22.489Z,0
2017-03-27T04:27:03.087Z,0
2017-03-27T04:27:43.662Z,0
2017-03-27T04:28:24.236Z,0
2017-03-27T04:29:04.844Z,0
2017-03-27T04:29:45.434Z,0
2017-03-27T04:30:26.035Z,0
2017-03-27T04:31:06.612Z,0
2017-03-27T04:31:47.192Z,0
2017-03-27T04:32:27.776Z,0
2017-03-27T04:33:09.118Z,0
2017-03-27T04:33:49.700Z,0
2017-03-27T04:34:30.279Z,0
2017-03-27T04:35:10.852Z,0
2017-03-27T04:35:51.416Z,0
2017-03-27T04:36:31.996Z,0
2017-03-27T04:37:12.558Z,0
2017-03-27T04:37:53.168Z,0
2017-03-27T04:38:33.737Z,0
2017-03-27T04:39:14.309Z,0
2017-03-27T04:39:54.908Z,0
2017-03-27T04:40:35.481Z,0
2017-03-27T04:41:16.044Z,0
2017-03-27T04:41:56.616Z,0
2017-03-27T04:42:37.190Z,0
2017-03-27T04:43:17.757Z,0
2017-03-27T04:43:58.362Z,0
2017-03-27T04:44:38.964Z,0
2017-03-27T04:45:19.543Z,0
2017-03-27T04:46:00.133Z,0
2017-03-27T04:46:40.710Z,0
2017-03-27T04:47:21.328Z,0
2017-03-27T04:48:01.887Z,0
2017-03-27T04:48:42.478Z,0
2017-03-27T04:49:23.033Z,0
2017-03-27T04:50:03.617Z,0
2017-03-27T04:50:44.217Z,0
2017-03-27T04:51:24.786Z,0
2017-03-27T04:53:43.609Z,5
2017-03-27T04:54:24.279Z,5
2017-03-27T04:55:04.846Z,5
2017-03-27T04:55:45.427Z,5
2017-03-27T04:56:26.050Z,5
2017-03-27T04:57:06.708Z,5
2017-03-27T04:57:47.338Z,5
2017-03-27T04:58:27.884Z,5
2017-03-27T04:59:08.485Z,5
2017-03-27T04:59:49.109Z,5
2017-03-27T05:00:29.726Z,5
2017-03-27T05:01:10.285Z,5
2017-03-27T05:01:50.870Z,10
2017-03-27T05:02:31.445Z,10
2017-03-27T05:03:12.033Z,10
2017-03-27T05:03:52.599Z,10
2017-03-27T05:04:33.174Z,10
2017-03-27T05:05:13.732Z,10
2017-03-27T05:05:54.300Z,10
2017-03-27T05:06:34.863Z,10
2017-03-27T05:07:15.450Z,10
2017-03-27T05:07:56.005Z,10
2017-03-27T05:08:36.580Z,10
2017-03-27T05:09:17.190Z,15
2017-03-27T05:09:57.782Z,15
2017-03-27T05:10:38.371Z,15
2017-03-27T05:11:18.979Z,15
2017-03-27T05:11:59.561Z,15
2017-03-27T05:12:40.190Z,15
2017-03-27T05:13:20.777Z,15
2017-03-27T05:14:01.376Z,15
2017-03-27T05:14:41.950Z,15
2017-03-27T05:15:22.530Z,15
2017-03-27T05:16:03.132Z,20
2017-03-27T05:16:43.699Z,20
2017-03-27T05:17:24.307Z,20
2017-03-27T05:18:04.891Z,20
2017-03-27T05:18:45.484Z,20
2017-03-27T05:19:26.055Z,20
2017-03-27T05:20:06.631Z,20
2017-03-27T05:20:47.203Z,20
2017-03-27T05:21:27.813Z,20
2017-03-27T05:22:08.394Z,20
2017-03-27T05:22:48.963Z,25
2017-03-27T05:23:29.549Z,25
2017-03-27T05:24:10.144Z,25
2017-03-27T05:24:50.715Z,25
2017-03-27T05:25:31.346Z,25
2017-03-27T05:26:11.930Z,25
2017-03-27T05:26:52.528Z,25
2017-03-27T05:27:33.120Z,25
2017-03-27T05:28:13.730Z,30
2017-03-27T05:28:54.312Z,30
2017-03-27T05:29:37.510Z,30
2017-03-27T05:30:18.074Z,30
2017-03-27T05:30:58.652Z,30
2017-03-27T05:31:39.223Z,30
2017-03-27T05:32:19.833Z,30
2017-03-27T05:33:04.991Z,30
2017-03-27T05:35:18.029Z,35
2017-03-27T05:35:58.605Z,35
2017-03-27T05:36:39.191Z,35
2017-03-27T05:37:19.762Z,35
2017-03-27T05:38:00.349Z,35
2017-03-27T05:38:40.907Z,35
2017-03-27T05:39:21.523Z,35
2017-03-27T05:40:02.075Z,35
2017-03-27T05:40:42.664Z,35
2017-03-27T05:41:23.270Z,40
2017-03-27T05:42:03.886Z,40
2017-03-27T05:42:44.455Z,40
2017-03-27T05:43:25.042Z,40
2017-03-27T05:44:05.617Z,40
2017-03-27T05:44:46.230Z,40
2017-03-27T05:45:26.814Z,40
2017-03-27T05:46:07.405Z,40
2017-03-27T05:46:48.008Z,40
2017-03-27T05:47:28.575Z,40
2017-03-27T05:48:09.165Z,40
2017-03-27T05:48:49.738Z,45
2017-03-27T05:49:30.349Z,45
2017-03-27T05:50:10.944Z,45
2017-03-27T05:50:51.514Z,45
2017-03-27T05:51:32.089Z,45
2017-03-27T05:52:12.688Z,45
2017-03-27T05:52:53.270Z,45
2017-03-27T05:53:33.861Z,45
2017-03-27T05:54:14.435Z,45
2017-03-27T05:54:54.996Z,45
2017-03-27T05:55:35.576Z,50
2017-03-27T05:56:16.177Z,50
2017-03-27T05:56:56.772Z,50
2017-03-27T05:57:39.244Z,50
2017-03-27T05:58:19.819Z,50
2017-03-27T05:59:00.422Z,50
2017-03-27T05:59:41.004Z,50
2017-03-27T06:00:21.600Z,50
2017-03-27T06:01:02.184Z,50
2017-03-27T06:01:42.792Z,50
2017-03-27T06:02:23.386Z,55
2017-03-27T06:03:03.958Z,55
2017-03-27T06:03:44.569Z,55
2017-03-27T06:04:25.122Z,55
2017-03-27T06:05:05.694Z,55
2017-03-27T06:05:46.381Z,55
2017-03-27T06:06:27.036Z,55
2017-03-27T06:07:07.636Z,55
2017-03-27T06:07:48.209Z,55
2017-03-27T06:08:28.827Z,55
2017-03-27T06:09:09.468Z,60
2017-03-27T06:09:50.058Z,60
2017-03-27T06:10:33.578Z,60
2017-03-27T06:11:14.161Z,60
2017-03-27T06:11:54.723Z,60
2017-03-27T06:12:35.308Z,60
2017-03-27T06:13:15.878Z,60
2017-03-27T06:13:56.453Z,60
2017-03-27T06:14:37.018Z,60
2017-03-27T06:15:17.672Z,60
2017-03-27T06:15:58.333Z,65
2017-03-27T06:16:38.909Z,65
2017-03-27T06:17:19.486Z,65
2017-03-27T06:18:00.058Z,65
2017-03-27T06:18:40.643Z,65
2017-03-27T06:19:21.274Z,65
2017-03-27T06:20:01.812Z,65
2017-03-27T06:20:42.485Z,65
2017-03-27T06:21:23.076Z,65
2017-03-27T06:22:03.695Z,65
2017-03-27T06:22:44.281Z,65
2017-03-27T06:23:24.857Z,70
2017-03-27T06:24:05.449Z,70
2017-03-27T06:24:46.029Z,70
2017-03-27T06:25:26.606Z,70
2017-03-27T06:26:07.208Z,70
2017-03-27T06:26:47.790Z,70
2017-03-27T06:27:28.372Z,70
2017-03-27T06:28:08.984Z,70
2017-03-27T06:28:49.570Z,70
2017-03-27T06:29:30.167Z,70
2017-03-27T06:30:10.744Z,75
2017-03-27T06:30:51.318Z,75
2017-03-27T06:31:31.912Z,75
2017-03-27T06:32:12.500Z,75
2017-03-27T06:32:53.071Z,75
2017-03-27T06:33:33.650Z,75
2017-03-27T06:34:14.238Z,75
2017-03-27T06:34:54.831Z,75
2017-03-27T06:35:35.410Z,75
2017-03-27T06:36:16.012Z,75
2017-03-27T06:36:56.651Z,80
2017-03-27T06:37:37.223Z,80
2017-03-27T06:38:17.797Z,80
2017-03-27T06:38:58.380Z,80
2017-03-27T06:39:38.967Z,80
2017-03-27T06:40:19.549Z,80
2017-03-27T06:41:00.159Z,80
2017-03-27T06:41:40.795Z,80
2017-03-27T06:42:21.416Z,80
2017-03-27T06:43:02.009Z,85
2017-03-27T06:43:42.603Z,85
2017-03-27T06:44:23.191Z,85
2017-03-27T06:45:03.760Z,85
2017-03-27T06:45:44.338Z,85
2017-03-27T06:46:24.920Z,85
2017-03-27T06:47:05.496Z,90
2017-03-27T06:47:46.078Z,90
2017-03-27T06:48:26.672Z,90
2017-03-27T06:49:07.245Z,90
2017-03-27T06:49:47.869Z,140
2017-03-27T06:50:28.453Z,585
2017-03-27T06:51:09.072Z,1190
2017-03-27T06:51:49.654Z,1650
2017-03-27T06:52:30.257Z,1670
2017-03-27T06:53:10.810Z,1595
2017-03-27T06:53:51.400Z,1570
2017-03-27T06:54:31.982Z,1460
2017-03-27T06:55:12.579Z,1345
2017-03-27T06:55:53.150Z,1275
2017-03-27T06:56:33.731Z,1460
2017-03-27T06:57:14.306Z,1490
2017-03-27T06:57:54.882Z,1265
2017-03-27T06:58:35.494Z,1205
2017-03-27T06:59:16.080Z,1230
2017-03-27T06:59:56.735Z,1325
2017-03-27T07:00:37.292Z,1455
2017-03-27T07:01:17.897Z,1355
2017-03-27T07:01:58.477Z,1150
2017-03-27T07:02:39.050Z,1050
2017-03-27T07:03:19.637Z,1160
2017-03-27T07:04:00.220Z,1365
2017-03-27T07:04:40.878Z,1595
2017-03-27T07:05:21.439Z,1665
2017-03-27T07:06:02.012Z,1485
2017-03-27T07:06:42.604Z,1475
2017-03-27T07:07:23.195Z,1460
2017-03-27T07:08:03.766Z,1490
2017-03-27T07:08:44.359Z,1405
2017-03-27T07:09:24.947Z,1535
2017-03-27T07:10:05.536Z,1650
2017-03-27T07:10:46.121Z,1650
2017-03-27T07:11:26.762Z,1715
2017-03-27T07:12:07.372Z,1890
2017-03-27T07:12:47.985Z,2090
2017-03-27T07:13:28.557Z,1975
2017-03-27T07:14:09.165Z,1850
2017-03-27T07:14:49.730Z,1785
2017-03-27T07:15:30.326Z,1830
2017-03-27T07:16:10.904Z,1870
2017-03-27T07:16:51.597Z,1915
2017-03-27T07:17:32.175Z,1845
2017-03-27T07:18:12.763Z,1780
2017-03-27T07:18:53.331Z,1795
2017-03-27T07:19:33.923Z,1805
2017-03-27T07:20:14.500Z,1800
2017-03-27T07:20:55.111Z,1780
2017-03-27T07:21:35.689Z,1765
2017-03-27T07:22:16.266Z,1680
2017-03-27T07:22:56.865Z,1620
2017-03-27T07:23:37.454Z,1590
2017-03-27T07:24:18.081Z,1540
2017-03-27T07:24:58.649Z,1515
2017-03-27T07:25:39.244Z,1540
2017-03-27T07:26:19.833Z,1505
2017-03-27T07:27:00.446Z,1460
2017-03-27T07:27:41.038Z,1420
2017-03-27T07:28:21.651Z,1380
2017-03-27T07:29:02.221Z,1265
2017-03-27T07:29:42.821Z,1170
2017-03-27T07:30:23.406Z,1080
2017-03-27T07:31:04.021Z,1025
2017-03-27T07:31:44.603Z,1030
2017-03-27T07:32:25.197Z,1050
2017-03-27T07:33:05.813Z,1030
2017-03-27T07:33:46.400Z,1010
2017-03-27T07:34:27.029Z,1025
2017-03-27T07:35:07.649Z,1035
2017-03-27T07:35:48.255Z,1035
2017-03-27T07:36:28.855Z,1120
2017-03-27T07:37:09.544Z,1300
2017-03-27T07:37:50.154Z,1540
2017-03-27T07:38:30.767Z,1865
2017-03-27T07:39:11.379Z,2195
2017-03-27T07:39:51.985Z,2335
2017-03-27T07:40:32.642Z,2275
2017-03-27T07:41:13.228Z,2110
2017-03-27T07:41:53.843Z,2065
2017-03-27T07:42:34.418Z,2045
2017-03-27T07:43:15.002Z,1985
2017-03-27T07:43:55.600Z,1915
2017-03-27T07:44:36.207Z,1830
2017-03-27T07:45:16.783Z,1880
2017-03-27T07:45:57.443Z,1990
2017-03-27T07:46:38.071Z,2210
2017-03-27T07:47:18.642Z,2315
2017-03-27T07:47:59.253Z,2430
2017-03-27T07:48:39.885Z,2330
2017-03-27T07:49:20.474Z,2060
2017-03-27T07:50:01.055Z,2135
2017-03-27T07:50:41.677Z,2045
2017-03-27T07:51:22.302Z,1950
2017-03-27T07:52:02.899Z,2010
2017-03-27T07:52:43.505Z,2080
2017-03-27T07:53:24.114Z,2185
2017-03-27T07:54:04.736Z,2230
2017-03-27T07:54:45.355Z,2240
2017-03-27T07:55:27.534Z,2200
2017-03-27T07:56:08.133Z,2170
2017-03-27T07:56:48.700Z,2150
2017-03-27T07:57:29.296Z,2155
2017-03-27T07:58:09.911Z,2110
2017-03-27T07:58:50.494Z,2065
2017-03-27T07:59:31.101Z,2035
2017-03-27T08:00:11.697Z,2045
2017-03-27T08:00:52.306Z,2080
2017-03-27T08:01:32.899Z,2115
2017-03-27T08:02:13.502Z,2175
2017-03-27T08:02:54.110Z,2220
2017-03-27T08:03:34.714Z,2305
2017-03-27T08:04:15.305Z,2220
2017-03-27T08:04:55.876Z,2120
2017-03-27T08:05:36.475Z,2115
2017-03-27T08:06:17.087Z,2160
2017-03-27T08:06:57.671Z,2105
2017-03-27T08:07:38.284Z,2005
2017-03-27T08:08:18.887Z,1930
2017-03-27T08:08:59.534Z,1940
2017-03-27T08:09:40.107Z,1990
2017-03-27T08:10:20.738Z,2040
2017-03-27T08:11:01.342Z,2050
2017-03-27T08:11:41.983Z,2005
2017-03-27T08:12:22.604Z,2030
2017-03-27T08:13:03.214Z,2105
2017-03-27T08:13:43.818Z,2260
2017-03-27T08:14:24.415Z,2370
2017-03-27T08:15:05.043Z,2245
2017-03-27T08:15:45.645Z,2150
2017-03-27T08:16:26.280Z,2160
2017-03-27T08:17:06.880Z,2190
2017-03-27T08:17:47.470Z,2140
2017-03-27T08:18:28.056Z,2120
2017-03-27T08:19:08.661Z,2090
2017-03-27T08:19:49.243Z,2050
2017-03-27T08:20:29.922Z,1985
2017-03-27T08:21:10.499Z,1980
2017-03-27T08:21:53.662Z,1950
2017-03-27T08:22:34.248Z,1950
2017-03-27T08:23:14.861Z,1900
2017-03-27T08:23:55.455Z,1450
2017-03-27T08:24:36.055Z,880
2017-03-27T08:25:16.640Z,520
2017-03-27T08:25:57.256Z,485
2017-03-27T08:26:37.866Z,470
2017-03-27T08:27:18.501Z,460
2017-03-27T08:27:59.108Z,450
2017-03-27T08:28:39.729Z,445
2017-03-27T08:29:20.356Z,435
2017-03-27T08:30:00.990Z,425
2017-03-27T08:30:41.581Z,415
2017-03-27T08:31:22.182Z,410
2017-03-27T08:32:02.835Z,405
2017-03-27T08:32:43.530Z,395
2017-03-27T08:33:24.119Z,385
2017-03-27T08:34:04.703Z,375
2017-03-27T08:34:45.288Z,375
2017-03-27T08:35:25.877Z,365
2017-03-27T08:36:06.493Z,355
2017-03-27T08:36:47.136Z,345
2017-03-27T08:37:27.745Z,340
2017-03-27T08:38:08.378Z,330
2017-03-27T08:38:49.006Z,320
2017-03-27T08:39:29.602Z,310
2017-03-27T08:40:10.181Z,300
2017-03-27T08:40:50.764Z,295
2017-03-27T08:41:31.360Z,290
2017-03-27T08:42:11.950Z,285
2017-03-27T08:42:52.554Z,275
2017-03-27T08:43:33.146Z,270
2017-03-27T08:44:13.726Z,265
2017-03-27T08:44:54.379Z,255
2017-03-27T08:45:34.962Z,255
2017-03-27T08:46:15.555Z,250
2017-03-27T08:46:56.213Z,245
2017-03-27T08:47:36.827Z,240
2017-03-27T08:48:17.420Z,235
2017-03-27T08:48:58.037Z,230
2017-03-27T08:49:38.645Z,225
2017-03-27T08:50:19.247Z,220
2017-03-27T08:50:59.851Z,215
2017-03-27T08:51:40.431Z,210
2017-03-27T08:52:21.036Z,210
2017-03-27T08:53:01.643Z,210
2017-03-27T08:53:42.274Z,205
2017-03-27T08:54:22.896Z,200
2017-03-27T08:55:03.484Z,195
2017-03-27T08:55:44.075Z,195
2017-03-27T08:56:24.695Z,190
2017-03-27T08:57:05.289Z,185
2017-03-27T08:57:45.865Z,185
2017-03-27T08:58:26.477Z,180
2017-03-27T08:59:07.142Z,175
2017-03-27T08:59:47.730Z,175
2017-03-27T09:00:28.305Z,170
2017-03-27T09:01:08.934Z,170
2017-03-27T09:01:49.519Z,165
2017-03-27T09:02:30.091Z,165
2017-03-27T09:03:10.688Z,160
2017-03-27T09:03:51.317Z,160
2017-03-27T09:04:31.912Z,160
2017-03-27T09:05:12.525Z,160
2017-03-27T09:05:53.115Z,160
2017-03-27T09:06:33.690Z,155
2017-03-27T09:07:14.300Z,155
2017-03-27T09:07:54.876Z,155
2017-03-27T09:08:35.508Z,150
2017-03-27T09:09:16.092Z,150
2017-03-27T09:09:57.778Z,150
2017-03-27T09:10:38.367Z,145
2017-03-27T09:11:18.998Z,145
2017-03-27T09:11:59.623Z,145
2017-03-27T09:12:40.209Z,145
2017-03-27T09:13:20.793Z,140
2017-03-27T09:14:01.387Z,140
2017-03-27T09:14:41.953Z,140
2017-03-27T09:15:22.549Z,140
2017-03-27T09:16:03.142Z,135
2017-03-27T09:16:43.718Z,135
2017-03-27T09:17:24.307Z,135
2017-03-27T09:18:04.918Z,130
2017-03-27T09:18:45.466Z,130
2017-03-27T09:19:26.053Z,130
2017-03-27T09:20:06.651Z,130
2017-03-27T09:20:47.264Z,130
2017-03-27T09:21:27.883Z,130
2017-03-27T09:22:08.541Z,125
2017-03-27T09:22:49.156Z,125
2017-03-27T09:23:29.730Z,125
2017-03-27T09:24:10.316Z,125
2017-03-27T09:24:50.966Z,125
2017-03-27T09:25:31.578Z,125
2017-03-27T09:26:12.165Z,120
2017-03-27T09:26:52.763Z,120
2017-03-27T09:27:33.341Z,120
2017-03-27T09:28:13.985Z,120
2017-03-27T09:28:54.626Z,120
2017-03-27T09:29:35.230Z,120
2017-03-27T09:30:15.805Z,120
2017-03-27T09:30:56.411Z,120
2017-03-27T09:31:37.036Z,120
2017-03-27T09:32:17.637Z,120
2017-03-27T09:32:58.230Z,120
2017-03-27T09:33:38.827Z,115
2017-03-27T09:34:19.404Z,115
2017-03-27T09:34:59.996Z,115
2017-03-27T09:35:40.608Z,115
2017-03-27T09:36:21.174Z,115
2017-03-27T09:37:01.778Z,115
2017-03-27T09:37:42.414Z,115
2017-03-27T09:38:23.062Z,115
2017-03-27T09:39:03.721Z,115
2017-03-27T09:39:44.317Z,115
2017-03-27T09:40:24.897Z,115
2017-03-27T09:41:05.461Z,115
2017-03-27T09:41:46.052Z,115
2017-03-27T09:42:26.644Z,115
2017-03-27T09:43:07.218Z,115
2017-03-27T09:43:47.816Z,110
2017-03-27T09:44:28.412Z,110
2017-03-27T09:45:09.032Z,110
2017-03-27T09:45:49.606Z,110
2017-03-27T09:46:30.198Z,110
2017-03-27T09:47:10.812Z,110
2017-03-27T09:47:51.397Z,110
2017-03-27T09:48:31.973Z,110